sensor_id;sensor_type;location;lat;lon;timestamp;P1;durP1;ratioP1;P2;durP2;ratioP2
30299;SDS011;17110;52.602;12.998;2022-08-01T00:00:33;7.87;;;7.17;;
30299;SDS011;17110;52.602;12.998;2022-08-01T00:02:58;7.75;;;6.93;;
30299;SDS011;17110;52.602;12.998;2022-08-01T00:05:24;7.90;;;7.20;;
30299;SDS011;17110;52.602;12.998;2022-08-01T00:07:50;8.00;;;7.25;;
30299;SDS011;17110;52.602;12.998;2022-08-01T00:10:16;8.47;;;7.77;;
30299;SDS011;17110;52.602;12.998;2022-08-01T00:12:43;9.02;;;7.90;;
30299;SDS011;17110;52.602;12.998;2022-08-01T00:15:10;8.60;;;7.80;;
30299;SDS011;17110;52.602;12.998;2022-08-01T00:17:37;9.40;;;8.50;;
30299;SDS011;17110;52.602;12.998;2022-08-01T00:20:03;8.98;;;8.18;;
30299;SDS011;17110;52.602;12.998;2022-08-01T00:22:31;10.55;;;9.25;;
30299;SDS011;17110;52.602;12.998;2022-08-01T00:24:57;9.50;;;8.70;;
30299;SDS011;17110;52.602;12.998;2022-08-01T00:27:23;10.10;;;9.20;;
30299;SDS011;17110;52.602;12.998;2022-08-01T00:29:49;10.03;;;9.07;;
30299;SDS011;17110;52.602;12.998;2022-08-01T00:32:15;9.27;;;8.57;;
30299;SDS011;17110;52.602;12.998;2022-08-01T00:34:40;9.98;;;8.98;;
30299;SDS011;17110;52.602;12.998;2022-08-01T00:37:06;9.23;;;8.07;;
30299;SDS011;17110;52.602;12.998;2022-08-01T00:39:32;9.18;;;8.27;;
30299;SDS011;17110;52.602;12.998;2022-08-01T00:41:58;9.00;;;8.20;;
30299;SDS011;17110;52.602;12.998;2022-08-01T00:44:24;9.70;;;8.70;;
30299;SDS011;17110;52.602;12.998;2022-08-01T00:46:50;9.50;;;8.65;;
30299;SDS011;17110;52.602;12.998;2022-08-01T00:49:16;9.60;;;8.70;;
30299;SDS011;17110;52.602;12.998;2022-08-01T00:51:42;9.27;;;8.48;;
30299;SDS011;17110;52.602;12.998;2022-08-01T00:54:08;9.63;;;8.73;;
30299;SDS011;17110;52.602;12.998;2022-08-01T00:56:34;9.20;;;8.40;;
30299;SDS011;17110;52.602;12.998;2022-08-01T00:58:59;8.85;;;8.05;;
30299;SDS011;17110;52.602;12.998;2022-08-01T01:01:25;9.02;;;8.27;;
30299;SDS011;17110;52.602;12.998;2022-08-01T01:03:52;8.53;;;7.87;;
30299;SDS011;17110;52.602;12.998;2022-08-01T01:11:55;8.70;;;8.00;;
30299;SDS011;17110;52.602;12.998;2022-08-01T01:18:27;9.00;;;8.25;;
30299;SDS011;17110;52.602;12.998;2022-08-01T01:20:37;8.13;;;7.47;;
30299;SDS011;17110;52.602;12.998;2022-08-01T01:25:46;9.20;;;8.40;;
30299;SDS011;17110;52.602;12.998;2022-08-01T01:28:30;8.82;;;8.18;;
30299;SDS011;17110;52.602;12.998;2022-08-01T01:31:06;8.50;;;7.80;;
30299;SDS011;17110;52.602;12.998;2022-08-01T01:33:36;9.43;;;8.63;;
30299;SDS011;17110;52.602;12.998;2022-08-01T01:36:05;9.95;;;8.77;;
30299;SDS011;17110;52.602;12.998;2022-08-01T01:38:35;9.70;;;8.75;;
30299;SDS011;17110;52.602;12.998;2022-08-01T01:41:07;10.48;;;9.50;;
30299;SDS011;17110;52.602;12.998;2022-08-01T01:43:35;11.13;;;10.23;;
30299;SDS011;17110;52.602;12.998;2022-08-01T01:46:02;11.88;;;10.77;;
30299;SDS011;17110;52.602;12.998;2022-08-01T01:48:29;12.60;;;11.57;;
30299;SDS011;17110;52.602;12.998;2022-08-01T01:50:57;14.30;;;12.90;;
30299;SDS011;17110;52.602;12.998;2022-08-01T01:53:25;13.32;;;12.13;;
30299;SDS011;17110;52.602;12.998;2022-08-01T01:55:53;13.43;;;12.23;;
30299;SDS011;17110;52.602;12.998;2022-08-01T01:58:25;12.60;;;11.50;;
30299;SDS011;17110;52.602;12.998;2022-08-01T02:00:54;13.00;;;11.90;;
30299;SDS011;17110;52.602;12.998;2022-08-01T02:03:22;12.77;;;11.68;;
30299;SDS011;17110;52.602;12.998;2022-08-01T02:05:51;12.77;;;11.60;;
30299;SDS011;17110;52.602;12.998;2022-08-01T02:08:18;12.10;;;10.88;;
30299;SDS011;17110;52.602;12.998;2022-08-01T02:10:46;12.13;;;11.05;;
30299;SDS011;17110;52.602;12.998;2022-08-01T02:13:31;11.57;;;10.57;;
30299;SDS011;17110;52.602;12.998;2022-08-01T02:15:59;11.50;;;10.60;;
30299;SDS011;17110;52.602;12.998;2022-08-01T02:18:26;12.32;;;11.23;;
30299;SDS011;17110;52.602;12.998;2022-08-01T02:20:52;11.75;;;10.73;;
30299;SDS011;17110;52.602;12.998;2022-08-01T02:23:20;12.25;;;11.15;;
30299;SDS011;17110;52.602;12.998;2022-08-01T02:25:49;11.00;;;10.00;;
30299;SDS011;17110;52.602;12.998;2022-08-01T02:28:25;11.77;;;10.77;;
30299;SDS011;17110;52.602;12.998;2022-08-01T02:31:01;10.32;;;9.43;;
30299;SDS011;17110;52.602;12.998;2022-08-01T02:33:36;11.83;;;10.83;;
30299;SDS011;17110;52.602;12.998;2022-08-01T02:36:06;11.70;;;10.70;;
30299;SDS011;17110;52.602;12.998;2022-08-01T02:38:37;10.73;;;9.83;;
30299;SDS011;17110;52.602;12.998;2022-08-01T02:41:08;11.15;;;10.15;;
30299;SDS011;17110;52.602;12.998;2022-08-01T02:43:40;10.95;;;9.95;;
30299;SDS011;17110;52.602;12.998;2022-08-01T02:46:12;11.30;;;10.30;;
30299;SDS011;17110;52.602;12.998;2022-08-01T02:48:44;10.73;;;9.80;;
30299;SDS011;17110;52.602;12.998;2022-08-01T02:51:11;10.60;;;9.80;;
30299;SDS011;17110;52.602;12.998;2022-08-01T02:53:39;10.98;;;10.07;;
30299;SDS011;17110;52.602;12.998;2022-08-01T02:56:06;11.20;;;10.18;;
30299;SDS011;17110;52.602;12.998;2022-08-01T02:58:33;11.40;;;10.27;;
30299;SDS011;17110;52.602;12.998;2022-08-01T03:01:00;11.95;;;10.85;;
30299;SDS011;17110;52.602;12.998;2022-08-01T03:03:28;10.50;;;9.60;;
30299;SDS011;17110;52.602;12.998;2022-08-01T03:05:54;10.40;;;9.50;;
30299;SDS011;17110;52.602;12.998;2022-08-01T03:08:22;11.88;;;10.77;;
30299;SDS011;17110;52.602;12.998;2022-08-01T03:10:50;10.85;;;9.80;;
30299;SDS011;17110;52.602;12.998;2022-08-01T03:13:18;10.10;;;9.20;;
30299;SDS011;17110;52.602;12.998;2022-08-01T03:15:46;10.80;;;9.80;;
30299;SDS011;17110;52.602;12.998;2022-08-01T03:18:12;10.85;;;9.90;;
30299;SDS011;17110;52.602;12.998;2022-08-01T03:20:41;10.82;;;9.80;;
30299;SDS011;17110;52.602;12.998;2022-08-01T03:23:08;11.10;;;10.00;;
30299;SDS011;17110;52.602;12.998;2022-08-01T03:25:36;11.43;;;10.43;;
30299;SDS011;17110;52.602;12.998;2022-08-01T03:28:04;10.60;;;9.65;;
30299;SDS011;17110;52.602;12.998;2022-08-01T03:30:32;11.27;;;10.27;;
30299;SDS011;17110;52.602;12.998;2022-08-01T03:33:00;10.98;;;9.98;;
30299;SDS011;17110;52.602;12.998;2022-08-01T03:35:29;12.30;;;11.20;;
30299;SDS011;17110;52.602;12.998;2022-08-01T03:37:58;11.35;;;10.20;;
30299;SDS011;17110;52.602;12.998;2022-08-01T03:40:47;11.80;;;10.65;;
30299;SDS011;17110;52.602;12.998;2022-08-01T03:43:26;13.27;;;11.20;;
30299;SDS011;17110;52.602;12.998;2022-08-01T03:45:55;12.05;;;10.85;;
30299;SDS011;17110;52.602;12.998;2022-08-01T03:48:28;11.82;;;10.73;;
30299;SDS011;17110;52.602;12.998;2022-08-01T03:50:56;12.73;;;11.38;;
30299;SDS011;17110;52.602;12.998;2022-08-01T03:53:24;12.65;;;11.20;;
30299;SDS011;17110;52.602;12.998;2022-08-01T03:55:53;12.80;;;11.48;;
30299;SDS011;17110;52.602;12.998;2022-08-01T03:58:23;12.90;;;11.50;;
30299;SDS011;17110;52.602;12.998;2022-08-01T04:00:49;13.87;;;12.37;;
30299;SDS011;17110;52.602;12.998;2022-08-01T04:03:15;12.55;;;11.35;;
30299;SDS011;17110;52.602;12.998;2022-08-01T04:05:42;13.50;;;12.10;;
30299;SDS011;17110;52.602;12.998;2022-08-01T04:08:08;13.50;;;12.10;;
30299;SDS011;17110;52.602;12.998;2022-08-01T04:10:33;12.60;;;11.30;;
30299;SDS011;17110;52.602;12.998;2022-08-01T04:13:00;13.60;;;12.20;;
30299;SDS011;17110;52.602;12.998;2022-08-01T04:15:25;14.88;;;12.45;;
30299;SDS011;17110;52.602;12.998;2022-08-01T04:17:51;13.63;;;12.23;;
30299;SDS011;17110;52.602;12.998;2022-08-01T04:20:19;13.63;;;12.43;;
30299;SDS011;17110;52.602;12.998;2022-08-01T04:22:44;13.13;;;11.82;;
30299;SDS011;17110;52.602;12.998;2022-08-01T04:25:43;13.75;;;11.68;;
30299;SDS011;17110;52.602;12.998;2022-08-01T04:28:04;13.05;;;11.80;;
30299;SDS011;17110;52.602;12.998;2022-08-01T04:30:33;13.05;;;11.85;;
30299;SDS011;17110;52.602;12.998;2022-08-01T04:33:02;12.73;;;11.30;;
30299;SDS011;17110;52.602;12.998;2022-08-01T04:35:31;12.52;;;11.38;;
30299;SDS011;17110;52.602;12.998;2022-08-01T04:37:58;12.50;;;11.27;;
30299;SDS011;17110;52.602;12.998;2022-08-01T04:40:27;13.27;;;11.80;;
30299;SDS011;17110;52.602;12.998;2022-08-01T04:42:53;12.93;;;11.73;;
30299;SDS011;17110;52.602;12.998;2022-08-01T04:45:20;12.95;;;11.65;;
30299;SDS011;17110;52.602;12.998;2022-08-01T04:47:46;12.33;;;11.10;;
30299;SDS011;17110;52.602;12.998;2022-08-01T04:50:13;13.10;;;11.80;;
30299;SDS011;17110;52.602;12.998;2022-08-01T04:52:38;15.55;;;11.57;;
30299;SDS011;17110;52.602;12.998;2022-08-01T04:55:07;13.75;;;12.20;;
30299;SDS011;17110;52.602;12.998;2022-08-01T04:57:34;12.57;;;11.32;;
30299;SDS011;17110;52.602;12.998;2022-08-01T05:00:02;12.25;;;10.95;;
30299;SDS011;17110;52.602;12.998;2022-08-01T05:02:29;12.70;;;11.40;;
30299;SDS011;17110;52.602;12.998;2022-08-01T05:04:54;12.43;;;11.23;;
30299;SDS011;17110;52.602;12.998;2022-08-01T05:07:20;12.30;;;11.10;;
30299;SDS011;17110;52.602;12.998;2022-08-01T05:09:46;12.55;;;11.35;;
30299;SDS011;17110;52.602;12.998;2022-08-01T05:12:12;12.63;;;11.33;;
30299;SDS011;17110;52.602;12.998;2022-08-01T05:14:38;13.18;;;11.80;;
30299;SDS011;17110;52.602;12.998;2022-08-01T05:17:05;13.85;;;12.55;;
30299;SDS011;17110;52.602;12.998;2022-08-01T05:19:38;13.27;;;12.05;;
30299;SDS011;17110;52.602;12.998;2022-08-01T05:22:05;13.13;;;11.90;;
30299;SDS011;17110;52.602;12.998;2022-08-01T05:24:37;12.48;;;11.23;;
30299;SDS011;17110;52.602;12.998;2022-08-01T05:27:04;12.10;;;10.90;;
30299;SDS011;17110;52.602;12.998;2022-08-01T05:29:32;10.60;;;9.60;;
30299;SDS011;17110;52.602;12.998;2022-08-01T05:31:58;10.10;;;9.10;;
30299;SDS011;17110;52.602;12.998;2022-08-01T05:34:25;11.07;;;10.02;;
30299;SDS011;17110;52.602;12.998;2022-08-01T05:36:52;10.73;;;9.63;;
30299;SDS011;17110;52.602;12.998;2022-08-01T05:39:18;10.45;;;9.55;;
30299;SDS011;17110;52.602;12.998;2022-08-01T05:41:44;10.00;;;9.00;;
30299;SDS011;17110;52.602;12.998;2022-08-01T05:44:09;11.10;;;9.68;;
30299;SDS011;17110;52.602;12.998;2022-08-01T05:46:41;9.25;;;8.38;;
30299;SDS011;17110;52.602;12.998;2022-08-01T05:49:07;9.77;;;8.88;;
30299;SDS011;17110;52.602;12.998;2022-08-01T05:51:34;9.65;;;8.75;;
30299;SDS011;17110;52.602;12.998;2022-08-01T05:54:00;9.70;;;8.75;;
30299;SDS011;17110;52.602;12.998;2022-08-01T05:56:25;8.57;;;7.78;;
30299;SDS011;17110;52.602;12.998;2022-08-01T05:58:51;8.68;;;7.88;;
30299;SDS011;17110;52.602;12.998;2022-08-01T06:01:17;8.40;;;7.65;;
30299;SDS011;17110;52.602;12.998;2022-08-01T06:03:44;9.82;;;8.93;;
30299;SDS011;17110;52.602;12.998;2022-08-01T06:06:13;9.13;;;7.88;;
30299;SDS011;17110;52.602;12.998;2022-08-01T06:08:41;9.88;;;8.88;;
30299;SDS011;17110;52.602;12.998;2022-08-01T06:11:07;8.30;;;7.60;;
30299;SDS011;17110;52.602;12.998;2022-08-01T06:13:33;9.30;;;8.40;;
30299;SDS011;17110;52.602;12.998;2022-08-01T06:15:58;9.50;;;8.60;;
30299;SDS011;17110;52.602;12.998;2022-08-01T06:18:24;8.38;;;7.57;;
30299;SDS011;17110;52.602;12.998;2022-08-01T06:20:50;7.87;;;7.07;;
30299;SDS011;17110;52.602;12.998;2022-08-01T06:23:16;7.32;;;6.63;;
30299;SDS011;17110;52.602;12.998;2022-08-01T06:25:42;7.57;;;6.88;;
30299;SDS011;17110;52.602;12.998;2022-08-01T06:28:10;7.20;;;6.60;;
30299;SDS011;17110;52.602;12.998;2022-08-01T06:30:36;7.20;;;6.50;;
30299;SDS011;17110;52.602;12.998;2022-08-01T06:33:05;7.00;;;6.35;;
30299;SDS011;17110;52.602;12.998;2022-08-01T06:35:31;7.22;;;6.53;;
30299;SDS011;17110;52.602;12.998;2022-08-01T06:37:59;6.47;;;5.97;;
30299;SDS011;17110;52.602;12.998;2022-08-01T06:40:25;6.90;;;6.18;;
30299;SDS011;17110;52.602;12.998;2022-08-01T06:42:57;6.60;;;6.00;;
30299;SDS011;17110;52.602;12.998;2022-08-01T06:45:24;5.72;;;5.18;;
30299;SDS011;17110;52.602;12.998;2022-08-01T06:47:51;5.72;;;5.22;;
30299;SDS011;17110;52.602;12.998;2022-08-01T06:50:17;5.63;;;5.13;;
30299;SDS011;17110;52.602;12.998;2022-08-01T06:52:43;5.93;;;5.37;;
30299;SDS011;17110;52.602;12.998;2022-08-01T06:55:13;6.97;;;6.38;;
30299;SDS011;17110;52.602;12.998;2022-08-01T06:57:46;6.73;;;5.97;;
30299;SDS011;17110;52.602;12.998;2022-08-01T07:00:16;7.53;;;6.72;;
30299;SDS011;17110;52.602;12.998;2022-08-01T07:02:45;8.02;;;7.32;;
30299;SDS011;17110;52.602;12.998;2022-08-01T07:05:11;8.60;;;7.50;;
30299;SDS011;17110;52.602;12.998;2022-08-01T07:07:37;9.20;;;8.30;;
30299;SDS011;17110;52.602;12.998;2022-08-01T07:10:03;8.30;;;7.50;;
30299;SDS011;17110;52.602;12.998;2022-08-01T07:12:30;8.35;;;7.53;;
30299;SDS011;17110;52.602;12.998;2022-08-01T07:14:59;7.90;;;7.15;;
30299;SDS011;17110;52.602;12.998;2022-08-01T07:17:24;8.25;;;7.55;;
30299;SDS011;17110;52.602;12.998;2022-08-01T07:19:50;8.60;;;7.47;;
30299;SDS011;17110;52.602;12.998;2022-08-01T07:22:16;7.72;;;6.95;;
30299;SDS011;17110;52.602;12.998;2022-08-01T07:24:42;7.63;;;6.83;;
30299;SDS011;17110;52.602;12.998;2022-08-01T07:27:07;7.85;;;7.05;;
30299;SDS011;17110;52.602;12.998;2022-08-01T07:29:33;7.40;;;6.70;;
30299;SDS011;17110;52.602;12.998;2022-08-01T07:31:59;7.82;;;6.95;;
30299;SDS011;17110;52.602;12.998;2022-08-01T07:34:25;7.00;;;6.40;;
30299;SDS011;17110;52.602;12.998;2022-08-01T07:36:52;6.18;;;5.50;;
30299;SDS011;17110;52.602;12.998;2022-08-01T07:39:21;5.45;;;4.95;;
30299;SDS011;17110;52.602;12.998;2022-08-01T07:41:47;5.90;;;5.30;;
30299;SDS011;17110;52.602;12.998;2022-08-01T07:44:12;5.00;;;4.60;;
30299;SDS011;17110;52.602;12.998;2022-08-01T07:46:39;4.40;;;4.00;;
30299;SDS011;17110;52.602;12.998;2022-08-01T07:49:10;3.78;;;3.30;;
30299;SDS011;17110;52.602;12.998;2022-08-01T07:51:35;4.70;;;3.65;;
30299;SDS011;17110;52.602;12.998;2022-08-01T07:54:01;3.80;;;3.50;;
30299;SDS011;17110;52.602;12.998;2022-08-01T07:56:36;5.18;;;3.80;;
30299;SDS011;17110;52.602;12.998;2022-08-01T07:59:01;3.15;;;2.85;;
30299;SDS011;17110;52.602;12.998;2022-08-01T08:01:27;2.70;;;2.50;;
30299;SDS011;17110;52.602;12.998;2022-08-01T08:03:56;4.30;;;2.77;;
30299;SDS011;17110;52.602;12.998;2022-08-01T08:06:22;3.35;;;3.00;;
30299;SDS011;17110;52.602;12.998;2022-08-01T08:08:51;2.90;;;2.70;;
30299;SDS011;17110;52.602;12.998;2022-08-01T08:11:19;2.00;;;1.87;;
30299;SDS011;17110;52.602;12.998;2022-08-01T08:13:45;2.40;;;2.20;;
30299;SDS011;17110;52.602;12.998;2022-08-01T08:16:11;4.90;;;2.67;;
30299;SDS011;17110;52.602;12.998;2022-08-01T08:18:37;3.58;;;2.50;;
30299;SDS011;17110;52.602;12.998;2022-08-01T08:21:03;3.30;;;2.53;;
30299;SDS011;17110;52.602;12.998;2022-08-01T08:23:29;3.17;;;2.87;;
30299;SDS011;17110;52.602;12.998;2022-08-01T08:26:13;3.67;;;2.85;;
30299;SDS011;17110;52.602;12.998;2022-08-01T08:28:39;2.60;;;2.40;;
30299;SDS011;17110;52.602;12.998;2022-08-01T08:31:05;2.90;;;2.70;;
30299;SDS011;17110;52.602;12.998;2022-08-01T08:33:30;3.55;;;3.05;;
30299;SDS011;17110;52.602;12.998;2022-08-01T08:35:56;3.13;;;2.90;;
30299;SDS011;17110;52.602;12.998;2022-08-01T08:38:22;4.13;;;3.47;;
30299;SDS011;17110;52.602;12.998;2022-08-01T08:40:50;4.88;;;3.60;;
30299;SDS011;17110;52.602;12.998;2022-08-01T08:43:17;4.78;;;3.55;;
30299;SDS011;17110;52.602;12.998;2022-08-01T08:45:43;3.35;;;3.00;;
30299;SDS011;17110;52.602;12.998;2022-08-01T08:48:15;5.78;;;3.40;;
30299;SDS011;17110;52.602;12.998;2022-08-01T08:50:41;3.60;;;3.30;;
30299;SDS011;17110;52.602;12.998;2022-08-01T08:53:11;3.33;;;2.97;;
30299;SDS011;17110;52.602;12.998;2022-08-01T08:55:41;4.28;;;3.72;;
30299;SDS011;17110;52.602;12.998;2022-08-01T08:58:11;3.67;;;3.38;;
30299;SDS011;17110;52.602;12.998;2022-08-01T09:00:40;3.40;;;2.90;;
30299;SDS011;17110;52.602;12.998;2022-08-01T09:03:09;4.45;;;2.90;;
30299;SDS011;17110;52.602;12.998;2022-08-01T09:05:35;4.63;;;3.03;;
30299;SDS011;17110;52.602;12.998;2022-08-01T09:08:00;3.50;;;2.83;;
30299;SDS011;17110;52.602;12.998;2022-08-01T09:10:26;3.40;;;2.83;;
30299;SDS011;17110;52.602;12.998;2022-08-01T09:13:02;3.30;;;3.00;;
30299;SDS011;17110;52.602;12.998;2022-08-01T09:15:38;2.50;;;2.20;;
30299;SDS011;17110;52.602;12.998;2022-08-01T09:18:04;2.93;;;2.40;;
30299;SDS011;17110;52.602;12.998;2022-08-01T09:20:33;3.03;;;2.78;;
30299;SDS011;17110;52.602;12.998;2022-08-01T09:23:03;3.80;;;2.60;;
30299;SDS011;17110;52.602;12.998;2022-08-01T09:25:29;3.17;;;2.55;;
30299;SDS011;17110;52.602;12.998;2022-08-01T09:28:05;2.40;;;2.20;;
30299;SDS011;17110;52.602;12.998;2022-08-01T09:30:37;2.53;;;2.33;;
30299;SDS011;17110;52.602;12.998;2022-08-01T09:33:04;2.95;;;2.17;;
30299;SDS011;17110;52.602;12.998;2022-08-01T09:35:31;2.17;;;1.98;;
30299;SDS011;17110;52.602;12.998;2022-08-01T09:38:11;2.37;;;2.17;;
30299;SDS011;17110;52.602;12.998;2022-08-01T09:43:26;2.10;;;1.90;;
30299;SDS011;17110;52.602;12.998;2022-08-01T09:45:54;2.23;;;1.90;;
30299;SDS011;17110;52.602;12.998;2022-08-01T09:48:21;1.70;;;1.60;;
30299;SDS011;17110;52.602;12.998;2022-08-01T09:50:48;2.08;;;1.67;;
30299;SDS011;17110;52.602;12.998;2022-08-01T09:53:18;2.95;;;1.60;;
30299;SDS011;17110;52.602;12.998;2022-08-01T09:55:44;1.50;;;1.23;;
30299;SDS011;17110;52.602;12.998;2022-08-01T09:58:10;1.95;;;1.48;;
30299;SDS011;17110;52.602;12.998;2022-08-01T10:00:37;1.50;;;1.40;;
30299;SDS011;17110;52.602;12.998;2022-08-01T10:03:37;1.30;;;1.20;;
30299;SDS011;17110;52.602;12.998;2022-08-01T10:05:58;1.85;;;1.20;;
30299;SDS011;17110;52.602;12.998;2022-08-01T10:08:24;3.00;;;1.43;;
30299;SDS011;17110;52.602;12.998;2022-08-01T10:11:09;1.25;;;1.10;;
30299;SDS011;17110;52.602;12.998;2022-08-01T10:13:40;2.17;;;1.10;;
30299;SDS011;17110;52.602;12.998;2022-08-01T10:16:05;2.80;;;1.40;;
30299;SDS011;17110;52.602;12.998;2022-08-01T10:18:33;2.67;;;1.80;;
30299;SDS011;17110;52.602;12.998;2022-08-01T10:21:01;2.00;;;1.30;;
30299;SDS011;17110;52.602;12.998;2022-08-01T10:23:37;1.80;;;1.17;;
30299;SDS011;17110;52.602;12.998;2022-08-01T10:26:04;2.80;;;1.00;;
30299;SDS011;17110;52.602;12.998;2022-08-01T10:28:34;1.90;;;1.30;;
30299;SDS011;17110;52.602;12.998;2022-08-01T10:31:01;1.35;;;1.10;;
30299;SDS011;17110;52.602;12.998;2022-08-01T10:33:28;2.03;;;1.30;;
30299;SDS011;17110;52.602;12.998;2022-08-01T10:35:55;1.42;;;1.30;;
30299;SDS011;17110;52.602;12.998;2022-08-01T10:38:21;2.65;;;1.20;;
30299;SDS011;17110;52.602;12.998;2022-08-01T10:40:51;2.45;;;1.65;;
30299;SDS011;17110;52.602;12.998;2022-08-01T10:43:20;3.40;;;1.73;;
30299;SDS011;17110;52.602;12.998;2022-08-01T10:45:49;2.65;;;2.00;;
30299;SDS011;17110;52.602;12.998;2022-08-01T10:48:19;3.25;;;2.20;;
30299;SDS011;17110;52.602;12.998;2022-08-01T10:50:51;2.95;;;1.88;;
30299;SDS011;17110;52.602;12.998;2022-08-01T10:53:22;4.63;;;1.67;;
30299;SDS011;17110;52.602;12.998;2022-08-01T10:55:51;1.60;;;1.50;;
30299;SDS011;17110;52.602;12.998;2022-08-01T10:58:22;2.00;;;1.52;;
30299;SDS011;17110;52.602;12.998;2022-08-01T11:01:14;2.15;;;1.77;;
30299;SDS011;17110;52.602;12.998;2022-08-01T11:04:08;1.70;;;1.60;;
30299;SDS011;17110;52.602;12.998;2022-08-01T11:11:59;2.70;;;1.50;;
30299;SDS011;17110;52.602;12.998;2022-08-01T11:17:42;1.95;;;1.70;;
30299;SDS011;17110;52.602;12.998;2022-08-01T11:41:35;1.80;;;1.10;;
30299;SDS011;17110;52.602;12.998;2022-08-01T11:44:15;1.35;;;1.10;;
30299;SDS011;17110;52.602;12.998;2022-08-01T11:46:47;1.65;;;1.30;;
30299;SDS011;17110;52.602;12.998;2022-08-01T11:52:11;1.55;;;1.15;;
30299;SDS011;17110;52.602;12.998;2022-08-01T11:54:51;1.58;;;1.13;;
30299;SDS011;17110;52.602;12.998;2022-08-01T11:57:41;1.50;;;1.00;;
30299;SDS011;17110;52.602;12.998;2022-08-01T12:00:10;1.08;;;0.95;;
30299;SDS011;17110;52.602;12.998;2022-08-01T12:02:38;1.30;;;1.08;;
30299;SDS011;17110;52.602;12.998;2022-08-01T12:05:14;1.10;;;1.00;;
30299;SDS011;17110;52.602;12.998;2022-08-01T12:07:43;1.40;;;0.95;;
30299;SDS011;17110;52.602;12.998;2022-08-01T12:10:20;1.40;;;1.20;;
30299;SDS011;17110;52.602;12.998;2022-08-01T12:12:51;1.90;;;1.00;;
30299;SDS011;17110;52.602;12.998;2022-08-01T12:15:28;1.02;;;0.93;;
30299;SDS011;17110;52.602;12.998;2022-08-01T12:17:57;1.83;;;1.00;;
30299;SDS011;17110;52.602;12.998;2022-08-01T12:20:28;1.75;;;1.00;;
30299;SDS011;17110;52.602;12.998;2022-08-01T12:23:05;2.42;;;1.00;;
30299;SDS011;17110;52.602;12.998;2022-08-01T12:25:41;1.63;;;0.90;;
30299;SDS011;17110;52.602;12.998;2022-08-01T12:28:11;2.45;;;0.90;;
30299;SDS011;17110;52.602;12.998;2022-08-01T12:30:40;3.30;;;1.10;;
30299;SDS011;17110;52.602;12.998;2022-08-01T12:33:09;2.30;;;1.10;;
30299;SDS011;17110;52.602;12.998;2022-08-01T12:35:41;2.95;;;1.27;;
30299;SDS011;17110;52.602;12.998;2022-08-01T12:38:13;1.93;;;1.00;;
30299;SDS011;17110;52.602;12.998;2022-08-01T12:40:43;1.10;;;1.00;;
30299;SDS011;17110;52.602;12.998;2022-08-01T12:43:21;1.00;;;0.80;;
30299;SDS011;17110;52.602;12.998;2022-08-01T12:45:50;2.33;;;1.00;;
30299;SDS011;17110;52.602;12.998;2022-08-01T12:48:24;2.47;;;0.85;;
30299;SDS011;17110;52.602;12.998;2022-08-01T12:50:50;2.75;;;1.05;;
30299;SDS011;17110;52.602;12.998;2022-08-01T12:53:17;1.53;;;0.93;;
30299;SDS011;17110;52.602;12.998;2022-08-01T12:55:47;1.40;;;1.00;;
30299;SDS011;17110;52.602;12.998;2022-08-01T12:58:15;1.40;;;0.85;;
30299;SDS011;17110;52.602;12.998;2022-08-01T13:00:43;1.88;;;0.90;;
30299;SDS011;17110;52.602;12.998;2022-08-01T13:03:15;1.30;;;0.80;;
30299;SDS011;17110;52.602;12.998;2022-08-01T13:05:46;1.45;;;0.73;;
30299;SDS011;17110;52.602;12.998;2022-08-01T13:08:18;0.77;;;0.70;;
30299;SDS011;17110;52.602;12.998;2022-08-01T13:10:45;0.90;;;0.80;;
30299;SDS011;17110;52.602;12.998;2022-08-01T13:13:12;0.55;;;0.55;;
30299;SDS011;17110;52.602;12.998;2022-08-01T13:15:39;1.08;;;0.80;;
30299;SDS011;17110;52.602;12.998;2022-08-01T13:18:27;1.50;;;0.70;;
30299;SDS011;17110;52.602;12.998;2022-08-01T13:26:38;0.98;;;0.70;;
30299;SDS011;17110;52.602;12.998;2022-08-01T13:29:30;0.80;;;0.80;;
30299;SDS011;17110;52.602;12.998;2022-08-01T13:31:58;0.90;;;0.60;;
30299;SDS011;17110;52.602;12.998;2022-08-01T13:34:40;1.77;;;0.68;;
30299;SDS011;17110;52.602;12.998;2022-08-01T13:37:06;3.30;;;0.90;;
30299;SDS011;17110;52.602;12.998;2022-08-01T13:39:31;1.60;;;0.67;;
30299;SDS011;17110;52.602;12.998;2022-08-01T13:42:13;1.30;;;0.70;;
30299;SDS011;17110;52.602;12.998;2022-08-01T13:44:43;0.55;;;0.55;;
30299;SDS011;17110;52.602;12.998;2022-08-01T13:47:11;0.60;;;0.57;;
30299;SDS011;17110;52.602;12.998;2022-08-01T13:49:37;1.08;;;0.68;;
30299;SDS011;17110;52.602;12.998;2022-08-01T13:52:03;1.23;;;0.80;;
30299;SDS011;17110;52.602;12.998;2022-08-01T13:54:31;0.90;;;0.60;;
30299;SDS011;17110;52.602;12.998;2022-08-01T13:56:57;2.00;;;0.87;;
30299;SDS011;17110;52.602;12.998;2022-08-01T13:59:23;2.05;;;0.60;;
30299;SDS011;17110;52.602;12.998;2022-08-01T14:01:49;2.90;;;0.70;;
30299;SDS011;17110;52.602;12.998;2022-08-01T14:04:15;1.87;;;0.70;;
30299;SDS011;17110;52.602;12.998;2022-08-01T14:06:40;1.30;;;0.60;;
30299;SDS011;17110;52.602;12.998;2022-08-01T14:09:06;2.20;;;0.70;;
30299;SDS011;17110;52.602;12.998;2022-08-01T14:11:32;1.40;;;0.67;;
30299;SDS011;17110;52.602;12.998;2022-08-01T14:13:58;1.60;;;0.73;;
30299;SDS011;17110;52.602;12.998;2022-08-01T14:16:24;1.80;;;0.65;;
30299;SDS011;17110;52.602;12.998;2022-08-01T14:18:50;0.93;;;0.60;;
30299;SDS011;17110;52.602;12.998;2022-08-01T14:21:18;1.52;;;0.65;;
30299;SDS011;17110;52.602;12.998;2022-08-01T14:23:44;2.00;;;0.82;;
30299;SDS011;17110;52.602;12.998;2022-08-01T14:26:10;1.80;;;0.80;;
30299;SDS011;17110;52.602;12.998;2022-08-01T14:28:36;1.05;;;0.70;;
30299;SDS011;17110;52.602;12.998;2022-08-01T14:31:02;1.95;;;1.00;;
30299;SDS011;17110;52.602;12.998;2022-08-01T14:33:37;2.30;;;1.00;;
30299;SDS011;17110;52.602;12.998;2022-08-01T14:36:03;1.13;;;0.85;;
30299;SDS011;17110;52.602;12.998;2022-08-01T14:38:29;1.20;;;0.83;;
30299;SDS011;17110;52.602;12.998;2022-08-01T14:40:54;0.70;;;0.70;;
30299;SDS011;17110;52.602;12.998;2022-08-01T14:43:20;0.82;;;0.70;;
30299;SDS011;17110;52.602;12.998;2022-08-01T14:45:46;0.70;;;0.70;;
30299;SDS011;17110;52.602;12.998;2022-08-01T14:48:17;1.05;;;0.73;;
30299;SDS011;17110;52.602;12.998;2022-08-01T14:50:43;1.75;;;1.00;;
30299;SDS011;17110;52.602;12.998;2022-08-01T14:53:09;1.45;;;0.70;;
30299;SDS011;17110;52.602;12.998;2022-08-01T14:55:35;1.92;;;1.10;;
30299;SDS011;17110;52.602;12.998;2022-08-01T14:58:01;1.40;;;0.70;;
30299;SDS011;17110;52.602;12.998;2022-08-01T15:00:26;0.90;;;0.70;;
30299;SDS011;17110;52.602;12.998;2022-08-01T15:02:52;1.48;;;0.70;;
30299;SDS011;17110;52.602;12.998;2022-08-01T15:05:20;0.73;;;0.63;;
30299;SDS011;17110;52.602;12.998;2022-08-01T15:07:46;0.93;;;0.77;;
30299;SDS011;17110;52.602;12.998;2022-08-01T15:10:15;3.05;;;0.90;;
30299;SDS011;17110;52.602;12.998;2022-08-01T15:12:41;1.67;;;0.90;;
30299;SDS011;17110;52.602;12.998;2022-08-01T15:15:08;1.13;;;0.80;;
30299;SDS011;17110;52.602;12.998;2022-08-01T15:17:34;1.30;;;0.80;;
30299;SDS011;17110;52.602;12.998;2022-08-01T15:20:02;1.58;;;0.90;;
30299;SDS011;17110;52.602;12.998;2022-08-01T15:22:30;1.20;;;0.80;;
30299;SDS011;17110;52.602;12.998;2022-08-01T15:24:57;4.80;;;1.00;;
30299;SDS011;17110;52.602;12.998;2022-08-01T15:27:25;2.10;;;0.80;;
30299;SDS011;17110;52.602;12.998;2022-08-01T15:29:52;1.15;;;0.95;;